createdAt,value
2018-04-30T00:00:57.439Z,84.16
2018-04-30T00:01:57.440Z,84.06
2018-04-30T00:02:57.440Z,84.55
2018-04-30T00:03:57.439Z,84.16
2018-04-30T00:04:57.434Z,84.16
2018-04-30T00:05:57.444Z,84.35
2018-04-30T00:06:57.435Z,84.26
2018-04-30T00:07:57.437Z,83.97
2018-04-30T00:08:57.433Z,84.06
2018-04-30T00:09:57.430Z,84.16
2018-04-30T00:10:57.432Z,83.97
2018-04-30T00:11:57.436Z,84.26
2018-04-30T00:12:57.430Z,84.06
2018-04-30T00:13:57.431Z,84.35
2018-04-30T00:14:57.433Z,84.16
2018-04-30T00:15:57.426Z,84.55
2018-04-30T00:16:57.430Z,84.35
2018-04-30T00:17:57.428Z,84.16
2018-04-30T00:18:57.426Z,84.35
2018-04-30T00:19:57.424Z,84.55
2018-04-30T00:20:57.425Z,84.35
2018-04-30T00:21:57.422Z,84.35
2018-04-30T00:22:57.465Z,84.35
2018-04-30T00:23:57.422Z,84.26
2018-04-30T00:24:57.420Z,84.16
2018-04-30T00:25:57.420Z,84.16
2018-04-30T00:26:57.419Z,84.06
2018-04-30T00:27:57.417Z,84.06
2018-04-30T00:28:57.415Z,84.16
2018-04-30T00:29:57.416Z,83.97
2018-04-30T00:30:57.415Z,83.97
2018-04-30T00:31:57.412Z,84.26
2018-04-30T00:32:57.415Z,84.26
2018-04-30T00:33:57.413Z,84.45
2018-04-30T00:34:57.410Z,84.16
2018-04-30T00:35:57.409Z,84.26
2018-04-30T00:36:57.405Z,84.16
2018-04-30T00:37:57.407Z,84.16
2018-04-30T00:38:57.407Z,84.16
2018-04-30T00:39:57.406Z,84.06
2018-04-30T00:40:57.404Z,84.26
2018-04-30T00:41:57.405Z,83.97
2018-04-30T00:42:57.403Z,84.26
2018-04-30T00:43:57.406Z,84.35
2018-04-30T00:44:57.405Z,84.45
2018-04-30T00:45:57.400Z,84.16
2018-04-30T00:46:57.399Z,83.97
2018-04-30T00:47:57.397Z,84.45
2018-04-30T00:48:57.397Z,83.97
2018-04-30T00:49:57.396Z,84.26
2018-04-30T00:50:57.395Z,83.59
2018-04-30T00:51:57.392Z,83.68
2018-04-30T00:52:57.397Z,83.59
2018-04-30T00:53:57.396Z,83.59
2018-04-30T00:54:57.391Z,83.49
2018-04-30T00:55:57.389Z,82.82
2018-04-30T00:56:57.399Z,82.78
2018-04-30T00:57:57.390Z,82.73
2018-04-30T00:58:57.385Z,82.78
2018-04-30T00:59:57.389Z,82.78
2018-04-30T01:00:57.385Z,82.49
2018-04-30T01:01:57.383Z,82.59
2018-04-30T01:02:57.381Z,82.59
2018-04-30T01:03:57.379Z,82.20
2018-04-30T01:04:57.384Z,82.20
2018-04-30T01:05:57.381Z,82.40
2018-04-30T01:06:57.381Z,82.49
2018-04-30T01:07:57.378Z,82.40
2018-04-30T01:08:57.378Z,82.11
2018-04-30T01:09:57.378Z,82.11
2018-04-30T01:10:57.377Z,82.11
2018-04-30T01:11:57.376Z,82.40
2018-04-30T01:12:57.372Z,82.11
2018-04-30T01:13:57.374Z,82.20
2018-04-30T01:14:57.372Z,82.11
2018-04-30T01:15:57.367Z,81.92
2018-04-30T01:16:57.372Z,82.01
2018-04-30T01:17:57.369Z,82.11
2018-04-30T01:18:57.367Z,82.01
2018-04-30T01:19:57.365Z,81.92
2018-04-30T01:20:57.366Z,81.44
2018-04-30T01:21:57.365Z,81.82
2018-04-30T01:22:57.362Z,81.44
2018-04-30T01:23:57.363Z,81.63
2018-04-30T01:24:57.366Z,81.34
2018-04-30T01:25:57.359Z,81.44
2018-04-30T01:26:57.359Z,81.63
2018-04-30T01:27:57.359Z,81.25
2018-04-30T01:28:57.358Z,81.73
2018-04-30T01:29:57.355Z,82.01
2018-04-30T01:30:57.352Z,81.82
2018-04-30T01:31:57.354Z,81.05
2018-04-30T01:32:57.352Z,81.29
2018-04-30T01:33:57.351Z,81.54
2018-04-30T01:34:57.351Z,81.44
2018-04-30T01:35:57.349Z,81.57
2018-04-30T01:36:57.349Z,81.77
2018-04-30T01:37:57.358Z,82.15
2018-04-30T01:38:57.343Z,81.96
2018-04-30T01:39:57.344Z,81.38
2018-04-30T01:40:57.343Z,81.38
2018-04-30T01:41:57.344Z,81.38
2018-04-30T01:42:57.337Z,81.38
2018-04-30T01:43:57.341Z,81.48
2018-04-30T01:44:57.341Z,81.29
2018-04-30T01:45:57.337Z,81.38
2018-04-30T01:46:57.336Z,81.38
2018-04-30T01:47:57.336Z,81.38
2018-04-30T01:48:57.335Z,81.48
2018-04-30T01:49:57.335Z,81.48
2018-04-30T01:50:57.333Z,81.20
2018-04-30T01:51:57.329Z,81.10
2018-04-30T01:52:57.331Z,80.81
2018-04-30T01:53:57.330Z,81.38
2018-04-30T01:54:57.330Z,80.81
2018-04-30T01:55:57.329Z,80.81
2018-04-30T01:56:57.325Z,81.20
2018-04-30T01:57:57.326Z,81.00
2018-04-30T01:58:57.322Z,81.00
2018-04-30T01:59:57.323Z,81.10
2018-04-30T02:00:57.322Z,80.62
2018-04-30T02:01:57.322Z,81.00
2018-04-30T02:02:57.320Z,81.00
2018-04-30T02:03:57.318Z,80.90
2018-04-30T02:04:57.314Z,81.00
2018-04-30T02:05:57.317Z,81.10
2018-04-30T02:06:57.315Z,81.20
2018-04-30T02:07:57.313Z,81.00
2018-04-30T02:08:57.310Z,80.62
2018-04-30T02:09:57.312Z,80.71
2018-04-30T02:10:57.309Z,80.52
2018-04-30T02:11:57.310Z,81.00
2018-04-30T02:12:57.308Z,80.14
2018-04-30T02:13:57.306Z,80.52
2018-04-30T02:14:57.304Z,80.33
2018-04-30T02:15:57.306Z,81.00
2018-04-30T02:16:57.305Z,80.71
2018-04-30T02:17:57.303Z,80.71
2018-04-30T02:18:57.300Z,80.52
2018-04-30T02:19:57.299Z,80.71
2018-04-30T02:20:57.304Z,80.24
2018-04-30T02:21:57.297Z,80.52
2018-04-30T02:22:57.294Z,80.14
2018-04-30T02:23:57.298Z,80.52
2018-04-30T02:24:57.293Z,80.81
2018-04-30T02:25:57.293Z,80.24
2018-04-30T02:26:57.290Z,80.52
2018-04-30T02:27:57.292Z,80.81
2018-04-30T02:28:57.288Z,80.62
2018-04-30T02:29:57.293Z,80.43
2018-04-30T02:30:57.289Z,80.33
2018-04-30T02:31:57.288Z,80.52
2018-04-30T02:32:57.282Z,80.43
2018-04-30T02:33:57.283Z,80.52
2018-04-30T02:34:57.281Z,80.52
2018-04-30T02:35:57.278Z,80.71
2018-04-30T02:36:57.282Z,80.43
2018-04-30T02:37:57.275Z,80.52
2018-04-30T02:38:57.274Z,80.71
2018-04-30T02:39:57.272Z,80.81
2018-04-30T02:40:57.278Z,80.52
2018-04-30T02:41:57.275Z,80.52
2018-04-30T02:42:57.268Z,80.33
2018-04-30T02:43:57.268Z,80.62
2018-04-30T02:44:57.268Z,80.43
2018-04-30T02:45:57.265Z,81.00
2018-04-30T02:46:57.260Z,80.52
2018-04-30T02:47:57.264Z,80.43
2018-04-30T02:48:57.261Z,80.90
2018-04-30T02:49:57.260Z,80.81
2018-04-30T02:50:57.260Z,80.81
2018-04-30T02:51:57.256Z,80.52
2018-04-30T02:52:57.257Z,80.52
2018-04-30T02:53:57.259Z,80.33
2018-04-30T02:54:57.257Z,80.52
2018-04-30T02:55:57.252Z,80.62
2018-04-30T02:56:57.248Z,80.43
2018-04-30T02:57:57.252Z,80.81
2018-04-30T02:58:57.247Z,80.43
2018-04-30T02:59:57.246Z,80.43
2018-04-30T03:00:57.244Z,80.43
2018-04-30T03:01:57.253Z,80.48
2018-04-30T03:02:57.245Z,80.33
2018-04-30T03:03:57.244Z,80.81
2018-04-30T03:04:57.239Z,80.48
2018-04-30T03:05:57.239Z,80.81
2018-04-30T03:06:57.241Z,80.33
2018-04-30T03:07:57.238Z,80.52
2018-04-30T03:08:57.236Z,80.81
2018-04-30T03:09:57.235Z,80.43
2018-04-30T03:10:57.233Z,80.43
2018-04-30T03:11:57.236Z,80.38
2018-04-30T03:12:57.228Z,80.81
2018-04-30T03:13:57.228Z,80.58
2018-04-30T03:14:57.229Z,80.67
2018-04-30T03:15:57.310Z,80.87
2018-04-30T03:16:57.232Z,80.52
2018-04-30T03:17:57.225Z,80.67
2018-04-30T03:18:57.225Z,80.38
2018-04-30T03:19:57.223Z,80.77
2018-04-30T03:20:57.229Z,80.96
2018-04-30T03:21:57.219Z,80.58
2018-04-30T03:22:57.217Z,80.67
2018-04-30T03:23:57.218Z,80.67
2018-04-30T03:24:57.215Z,80.96
2018-04-30T03:25:57.219Z,80.77
2018-04-30T03:26:57.214Z,80.87
2018-04-30T03:27:57.210Z,80.67
2018-04-30T03:28:57.210Z,80.48
2018-04-30T03:29:57.205Z,80.67
2018-04-30T03:30:57.207Z,80.67
2018-04-30T03:31:57.208Z,80.96
2018-04-30T03:32:57.207Z,80.67
2018-04-30T03:33:57.207Z,80.77
2018-04-30T03:34:57.201Z,80.77
2018-04-30T03:35:57.200Z,80.96
2018-04-30T03:36:57.198Z,81.34
2018-04-30T03:37:57.198Z,80.67
2018-04-30T03:38:57.196Z,80.77
2018-04-30T03:39:57.194Z,81.15
2018-04-30T03:40:57.244Z,81.34
2018-04-30T03:41:57.192Z,81.15
2018-04-30T03:42:57.190Z,81.44
2018-04-30T03:43:57.195Z,81.34
2018-04-30T03:44:57.187Z,81.25
2018-04-30T03:45:57.187Z,81.34
2018-04-30T03:46:57.185Z,82.01
2018-04-30T03:47:57.181Z,81.44
2018-04-30T03:48:57.181Z,81.34
2018-04-30T03:49:57.180Z,82.01
2018-04-30T03:50:57.175Z,81.34
2018-04-30T03:51:57.177Z,82.01
2018-04-30T03:52:57.182Z,81.82
2018-04-30T03:53:57.178Z,81.82
2018-04-30T03:54:57.171Z,81.82
2018-04-30T03:55:57.170Z,81.34
2018-04-30T03:56:57.170Z,81.15
2018-04-30T03:57:57.167Z,81.92
2018-04-30T03:58:57.171Z,82.11
2018-04-30T03:59:57.164Z,82.59
2018-04-30T04:00:57.159Z,82.49
2018-04-30T04:01:57.165Z,82.11
2018-04-30T04:02:57.183Z,82.01
2018-04-30T04:03:57.157Z,82.20
2018-04-30T04:04:57.158Z,81.92
2018-04-30T04:05:57.154Z,82.11
2018-04-30T04:06:57.159Z,82.35
2018-04-30T04:07:57.150Z,82.11
2018-04-30T04:08:57.151Z,82.07
2018-04-30T04:09:57.148Z,81.73
2018-04-30T04:10:57.143Z,82.17
2018-04-30T04:11:57.145Z,81.92
2018-04-30T04:12:57.138Z,82.97
2018-04-30T04:13:57.142Z,82.40
2018-04-30T04:14:57.141Z,82.30
2018-04-30T04:15:57.139Z,82.01
2018-04-30T04:16:57.135Z,82.30
2018-04-30T04:17:57.134Z,82.11
2018-04-30T04:18:57.133Z,82.26
2018-04-30T04:19:57.130Z,82.40
2018-04-30T04:20:57.129Z,82.97
2018-04-30T04:21:57.127Z,82.20
2018-04-30T04:22:57.131Z,82.40
2018-04-30T04:23:57.131Z,82.78
2018-04-30T04:24:57.124Z,83.36
2018-04-30T04:25:57.123Z,82.87
2018-04-30T04:26:57.118Z,82.78
2018-04-30T04:27:57.116Z,82.78
2018-04-30T04:28:57.116Z,83.16
2018-04-30T04:29:57.115Z,82.78
2018-04-30T04:30:57.113Z,82.78
2018-04-30T04:31:57.116Z,82.68
2018-04-30T04:32:57.112Z,82.68
2018-04-30T04:33:57.108Z,82.78
2018-04-30T04:34:57.108Z,83.36
2018-04-30T04:35:57.106Z,83.36
2018-04-30T04:36:57.104Z,83.26
2018-04-30T04:37:57.104Z,83.26
2018-04-30T04:38:57.100Z,83.54
2018-04-30T04:39:57.095Z,82.87
2018-04-30T04:40:57.100Z,83.73
2018-04-30T04:41:57.095Z,83.54
2018-04-30T04:42:57.090Z,83.73
2018-04-30T04:43:57.093Z,83.49
2018-04-30T04:44:57.091Z,83.59
2018-04-30T04:45:57.090Z,83.78
2018-04-30T04:46:57.086Z,84.49
2018-04-30T04:47:57.089Z,83.87
2018-04-30T04:48:57.085Z,84.49
2018-04-30T04:49:57.084Z,83.82
2018-04-30T04:50:57.087Z,83.82
2018-04-30T04:51:57.080Z,84.49
2018-04-30T04:52:57.079Z,84.30
2018-04-30T04:53:57.077Z,83.95
2018-04-30T04:54:57.076Z,83.72
2018-04-30T04:55:57.078Z,84.53
2018-04-30T04:56:57.072Z,83.95
2018-04-30T04:57:57.071Z,84.20
2018-04-30T04:58:57.069Z,83.72
2018-04-30T04:59:57.071Z,84.25
2018-04-30T05:00:57.069Z,84.48
2018-04-30T05:01:57.072Z,84.67
2018-04-30T05:02:57.065Z,84.48
2018-04-30T05:03:57.062Z,84.09
2018-04-30T05:04:57.064Z,84.58
2018-04-30T05:05:57.063Z,83.67
2018-04-30T05:06:57.060Z,84.05
2018-04-30T05:07:57.061Z,83.38
2018-04-30T05:08:57.058Z,84.34
2018-04-30T05:09:57.060Z,83.76
2018-04-30T05:10:57.102Z,84.58
2018-04-30T05:11:57.056Z,84.15
2018-04-30T05:12:57.058Z,83.67
2018-04-30T05:13:57.056Z,84.25
2018-04-30T05:14:57.054Z,83.95
2018-04-30T05:15:57.052Z,83.86
2018-04-30T05:16:57.053Z,84.28
2018-04-30T05:17:57.050Z,84.77
2018-04-30T05:18:57.048Z,84.09
2018-04-30T05:19:57.049Z,84.14
2018-04-30T05:20:57.073Z,84.19
2018-04-30T05:21:57.047Z,83.94
2018-04-30T05:22:57.048Z,84.00
2018-04-30T05:23:57.046Z,83.91
2018-04-30T05:24:57.048Z,83.76
2018-04-30T05:25:57.046Z,84.01
2018-04-30T05:26:57.056Z,84.01
2018-04-30T05:27:57.045Z,84.39
2018-04-30T05:28:57.044Z,84.11
2018-04-30T05:29:57.044Z,85.58
2018-04-30T05:30:57.046Z,85.67
2018-04-30T05:31:57.047Z,84.61
2018-04-30T05:32:57.043Z,84.27
2018-04-30T05:33:57.124Z,84.14
2018-04-30T05:34:57.040Z,84.99
2018-04-30T05:35:57.041Z,84.37
2018-04-30T05:36:57.040Z,85.18
2018-04-30T05:37:57.044Z,84.80
2018-04-30T05:38:57.040Z,84.64
2018-04-30T05:39:57.039Z,83.87
2018-04-30T05:40:57.047Z,83.69
2018-04-30T05:41:57.043Z,83.53
2018-04-30T05:42:57.038Z,84.55
2018-04-30T05:43:57.040Z,84.07
2018-04-30T05:44:57.039Z,83.59
2018-04-30T05:45:57.042Z,82.71
2018-04-30T05:46:57.046Z,81.90
2018-04-30T05:47:57.085Z,82.29
2018-04-30T05:48:57.047Z,83.59
2018-04-30T05:49:57.043Z,83.34
2018-04-30T05:50:57.040Z,83.87
2018-04-30T05:51:57.043Z,83.34
2018-04-30T05:52:57.047Z,82.08
2018-04-30T05:53:57.047Z,80.65
2018-04-30T05:54:57.047Z,81.99
2018-04-30T05:55:57.047Z,81.94
2018-04-30T05:56:57.045Z,81.71
2018-04-30T05:57:57.053Z,81.37
2018-04-30T05:58:57.049Z,81.71
2018-04-30T05:59:57.106Z,82.57
2018-04-30T06:00:57.051Z,83.60
2018-04-30T06:01:57.054Z,86.58
2018-04-30T06:02:57.053Z,85.57
2018-04-30T06:03:57.055Z,85.22
2018-04-30T06:04:57.057Z,84.26
2018-04-30T06:05:57.056Z,84.55
2018-04-30T06:06:57.057Z,84.91
2018-04-30T06:07:57.059Z,85.34
2018-04-30T06:08:57.059Z,85.44
2018-04-30T06:09:57.062Z,87.35
2018-04-30T06:10:57.070Z,85.66
2018-04-30T06:11:57.065Z,85.71
2018-04-30T06:12:57.065Z,85.08
2018-04-30T06:13:57.066Z,84.40
2018-04-30T06:14:57.067Z,82.90
2018-04-30T06:15:57.071Z,83.58
2018-04-30T06:16:57.076Z,84.01
2018-04-30T06:17:57.071Z,83.67
2018-04-30T06:18:57.069Z,82.86
2018-04-30T06:19:57.074Z,84.07
2018-04-30T06:20:57.073Z,84.78
2018-04-30T06:21:57.077Z,83.69
2018-04-30T06:22:57.078Z,82.52
2018-04-30T06:23:57.076Z,82.43
2018-04-30T06:24:57.080Z,83.53
2018-04-30T06:25:57.082Z,84.21
2018-04-30T06:26:57.140Z,84.74
2018-04-30T06:27:57.084Z,85.47
2018-04-30T06:28:57.085Z,85.28
2018-04-30T06:29:57.087Z,86.15
2018-04-30T06:30:57.093Z,87.54
2018-04-30T06:31:57.091Z,86.80
2018-04-30T06:32:57.093Z,85.13
2018-04-30T06:33:57.096Z,85.55
2018-04-30T06:34:57.095Z,84.25
2018-04-30T06:35:57.103Z,82.94
2018-04-30T06:36:57.093Z,80.33
2018-04-30T06:37:57.100Z,78.21
2018-04-30T06:38:57.109Z,78.25
2018-04-30T06:39:57.102Z,73.89
2018-04-30T06:40:57.109Z,74.26
2018-04-30T06:41:57.108Z,76.76
2018-04-30T06:42:57.111Z,76.42
2018-04-30T06:43:57.108Z,71.32
2018-04-30T06:44:57.112Z,71.83
2018-04-30T06:45:57.123Z,74.14
2018-04-30T06:46:57.121Z,73.57
2018-04-30T06:47:57.122Z,72.54
2018-04-30T06:48:57.126Z,70.76
2018-04-30T06:49:57.128Z,73.14
2018-04-30T06:50:57.194Z,73.11
2018-04-30T06:51:57.134Z,69.58
2018-04-30T06:52:57.138Z,69.10
2018-04-30T06:53:57.140Z,67.40
2018-04-30T06:54:57.142Z,66.72
2018-04-30T06:55:57.145Z,66.43
2018-04-30T06:56:57.150Z,64.37
2018-04-30T06:57:57.157Z,62.50
2018-04-30T06:58:57.156Z,65.47
2018-04-30T06:59:57.163Z,65.24
2018-04-30T07:00:57.164Z,65.56
2018-04-30T07:01:57.175Z,67.27
2018-04-30T07:02:57.165Z,68.97
2018-04-30T07:03:57.176Z,67.65
2018-04-30T07:04:57.183Z,70.48
2018-04-30T07:05:57.185Z,69.97
2018-04-30T07:06:57.187Z,69.36
2018-04-30T07:07:57.191Z,67.01
2018-04-30T07:08:57.199Z,65.37
2018-04-30T07:09:57.202Z,61.63
2018-04-30T07:10:57.208Z,61.60
2018-04-30T07:11:57.211Z,61.63
2018-04-30T07:12:57.217Z,60.75
2018-04-30T07:13:57.222Z,61.02
2018-04-30T07:14:57.224Z,62.70
2018-04-30T07:15:57.230Z,65.47
2018-04-30T07:16:57.236Z,66.91
2018-04-30T07:17:57.240Z,64.85
2018-04-30T07:18:57.251Z,63.18
2018-04-30T07:19:57.249Z,62.30
2018-04-30T07:20:57.255Z,62.82
2018-04-30T07:21:57.261Z,61.92
2018-04-30T07:22:57.264Z,59.72
2018-04-30T07:23:57.279Z,58.14
2018-04-30T07:24:57.280Z,57.14
2018-04-30T07:25:57.283Z,57.11
2018-04-30T07:26:57.325Z,61.40
2018-04-30T07:27:57.295Z,61.33
2018-04-30T07:28:57.298Z,60.75
2018-04-30T07:29:57.305Z,60.82
2018-04-30T07:30:57.311Z,59.20
2018-04-30T07:31:57.319Z,58.04
2018-04-30T07:32:57.324Z,59.50
2018-04-30T07:33:57.329Z,61.40
2018-04-30T07:34:57.335Z,60.88
2018-04-30T07:35:57.341Z,59.14
2018-04-30T07:36:57.349Z,59.00
2018-04-30T07:37:57.354Z,56.29
2018-04-30T07:38:57.367Z,55.38
2018-04-30T07:39:57.367Z,54.63
2018-04-30T07:40:57.374Z,54.50
2018-04-30T07:41:57.382Z,53.95
2018-04-30T07:42:57.387Z,53.20
2018-04-30T07:43:57.396Z,52.33
2018-04-30T07:44:57.402Z,51.89
2018-04-30T07:45:57.417Z,51.45
2018-04-30T07:46:57.418Z,53.41
2018-04-30T07:47:57.423Z,53.17
2018-04-30T07:48:57.438Z,54.58
2018-04-30T07:49:57.472Z,53.78
2018-04-30T07:50:57.447Z,52.42
2018-04-30T07:51:57.459Z,52.78
2018-04-30T07:52:57.565Z,55.52
2018-04-30T07:53:57.469Z,56.13
2018-04-30T07:54:57.475Z,55.77
2018-04-30T07:55:57.482Z,52.91
2018-04-30T07:56:57.495Z,52.89
2018-04-30T07:57:57.510Z,51.04
2018-04-30T07:58:57.524Z,49.80
2018-04-30T07:59:57.516Z,48.54
2018-04-30T08:00:57.526Z,48.29
2018-04-30T08:01:57.916Z,48.27
2018-04-30T08:02:57.645Z,47.49
2018-04-30T08:03:57.550Z,48.34
2018-04-30T08:04:57.557Z,48.17
2018-04-30T08:05:57.566Z,47.22
2018-04-30T08:06:57.573Z,48.58
2018-04-30T08:07:57.590Z,48.34
2018-04-30T08:08:57.595Z,48.75
2018-04-30T08:09:57.603Z,48.27
2018-04-30T08:10:57.612Z,46.44
2018-04-30T08:11:57.619Z,47.25
2018-04-30T08:12:57.790Z,46.47
2018-04-30T08:13:57.638Z,46.10
2018-04-30T08:14:57.695Z,45.88
2018-04-30T08:15:57.657Z,45.78
2018-04-30T08:16:57.666Z,45.03
2018-04-30T08:17:57.757Z,45.22
2018-04-30T08:18:57.777Z,45.94
2018-04-30T08:19:57.698Z,47.61
2018-04-30T08:20:57.799Z,47.17
2018-04-30T08:21:57.715Z,47.61
2018-04-30T08:22:57.853Z,48.63
2018-04-30T08:23:57.774Z,47.90
2018-04-30T08:24:57.753Z,46.73
2018-04-30T08:25:57.757Z,46.49
2018-04-30T08:26:57.809Z,44.97
2018-04-30T08:27:57.776Z,44.95
2018-04-30T08:28:57.787Z,44.29
2018-04-30T08:29:57.799Z,43.95
2018-04-30T08:30:57.810Z,45.32
2018-04-30T08:31:57.826Z,45.00
2018-04-30T08:32:57.859Z,45.22
2018-04-30T08:33:57.852Z,45.81
2018-04-30T08:34:57.847Z,45.12
2018-04-30T08:35:57.864Z,45.78
2018-04-30T08:36:57.875Z,45.42
2018-04-30T08:37:58.059Z,44.38
2018-04-30T08:38:57.902Z,44.29
2018-04-30T08:39:57.907Z,45.07
2018-04-30T08:40:57.913Z,44.66
2018-04-30T08:41:57.924Z,45.10
2018-04-30T08:42:57.933Z,46.71
2018-04-30T08:43:57.942Z,48.71
2018-04-30T08:44:57.966Z,52.15
2018-04-30T08:45:57.964Z,52.91
2018-04-30T08:46:58.000Z,54.90
2018-04-30T08:47:57.986Z,55.96
2018-04-30T08:48:57.995Z,56.41
2018-04-30T08:49:58.012Z,58.74
2018-04-30T08:50:58.011Z,57.09
2018-04-30T08:51:58.203Z,56.86
2018-04-30T08:52:58.029Z,53.74
2018-04-30T08:53:58.039Z,51.33
2018-04-30T08:54:58.061Z,49.90
2018-04-30T08:55:58.054Z,49.15
2018-04-30T08:56:58.065Z,48.41
2018-04-30T08:57:58.076Z,47.03
2018-04-30T08:58:58.091Z,47.80
2018-04-30T08:59:58.097Z,48.88
2018-04-30T09:00:58.098Z,48.88
2018-04-30T09:01:58.163Z,48.85
2018-04-30T09:02:58.113Z,49.92
2018-04-30T09:03:58.126Z,50.29
2018-04-30T09:04:58.131Z,50.89
2018-04-30T09:05:58.141Z,53.27
2018-04-30T09:06:58.144Z,55.35
2018-04-30T09:07:58.188Z,58.11
2018-04-30T09:08:58.163Z,59.36
2018-04-30T09:09:58.239Z,60.33
2018-04-30T09:10:58.217Z,61.88
2018-04-30T09:11:58.181Z,61.91
2018-04-30T09:12:58.191Z,61.91
2018-04-30T09:13:58.198Z,62.79
2018-04-30T09:14:58.209Z,60.94
2018-04-30T09:15:58.209Z,61.82
2018-04-30T09:16:58.217Z,61.62
2018-04-30T09:17:58.227Z,62.69
2018-04-30T09:18:58.230Z,61.24
2018-04-30T09:19:58.236Z,62.04
2018-04-30T09:20:58.243Z,61.26
2018-04-30T09:21:58.249Z,60.27
2018-04-30T09:22:58.256Z,59.10
2018-04-30T09:23:58.263Z,61.17
2018-04-30T09:24:58.269Z,61.65
2018-04-30T09:25:58.275Z,60.85
2018-04-30T09:26:58.286Z,60.65
2018-04-30T09:27:58.296Z,60.36
2018-04-30T09:28:58.375Z,61.04
2018-04-30T09:29:58.300Z,60.46
2018-04-30T09:30:58.306Z,61.04
2018-04-30T09:31:58.312Z,60.46
2018-04-30T09:32:58.319Z,60.55
2018-04-30T09:33:58.325Z,61.24
2018-04-30T09:34:58.392Z,61.72
2018-04-30T09:35:58.339Z,60.07
2018-04-30T09:36:58.345Z,61.04
2018-04-30T09:37:58.352Z,60.85
2018-04-30T09:38:58.358Z,61.91
2018-04-30T09:39:58.364Z,61.82
2018-04-30T09:40:58.373Z,61.72
2018-04-30T09:41:58.374Z,61.43
2018-04-30T09:42:58.379Z,61.33
2018-04-30T09:43:58.387Z,62.40
2018-04-30T09:44:58.404Z,61.94
2018-04-30T09:45:58.398Z,61.04
2018-04-30T09:46:58.406Z,62.72
2018-04-30T09:47:58.410Z,63.78
2018-04-30T09:48:58.417Z,62.13
2018-04-30T09:49:58.423Z,61.33
2018-04-30T09:50:58.428Z,60.85
2018-04-30T09:51:58.440Z,60.75
2018-04-30T09:52:58.440Z,61.14
2018-04-30T09:53:58.446Z,62.79
2018-04-30T09:54:58.452Z,60.85
2018-04-30T09:55:58.456Z,61.33
2018-04-30T09:56:58.464Z,61.14
2018-04-30T09:57:58.546Z,59.69
2018-04-30T09:58:58.473Z,62.91
2018-04-30T09:59:58.482Z,60.88
2018-04-30T10:00:58.486Z,58.74
2018-04-30T10:01:58.492Z,57.87
2018-04-30T10:02:58.498Z,57.00
2018-04-30T10:03:58.505Z,56.71
2018-04-30T10:04:58.592Z,58.06
2018-04-30T10:05:58.518Z,56.39
2018-04-30T10:06:58.522Z,57.84
2018-04-30T10:07:58.529Z,58.72
2018-04-30T10:08:58.534Z,59.10
2018-04-30T10:09:58.542Z,60.46
2018-04-30T10:10:58.546Z,59.33
2018-04-30T10:11:58.554Z,58.55
2018-04-30T10:12:58.559Z,58.23
2018-04-30T10:13:58.601Z,60.58
2018-04-30T10:14:58.752Z,58.84
2018-04-30T10:15:58.640Z,60.49
2018-04-30T10:16:58.725Z,59.91
2018-04-30T10:17:59.551Z,60.49
2018-04-30T10:18:58.893Z,60.10
2018-04-30T10:19:58.613Z,60.00
2018-04-30T10:20:58.615Z,60.88
2018-04-30T10:21:58.614Z,61.94
2018-04-30T10:22:58.624Z,61.94
2018-04-30T10:23:58.771Z,62.30
2018-04-30T10:24:58.638Z,63.95
2018-04-30T10:25:58.653Z,64.82
2018-04-30T10:26:58.911Z,66.24
2018-04-30T10:27:58.721Z,68.21
2018-04-30T10:28:58.715Z,67.24
2018-04-30T10:29:58.852Z,69.40
2018-04-30T10:30:58.673Z,71.72
2018-04-30T10:31:58.690Z,71.62
2018-04-30T10:32:58.808Z,71.72
2018-04-30T10:33:58.727Z,71.82
2018-04-30T10:34:58.724Z,72.98
2018-04-30T10:35:59.142Z,74.79
2018-04-30T10:36:58.701Z,74.05
2018-04-30T10:37:58.748Z,74.92
2018-04-30T10:38:58.938Z,73.18
2018-04-30T10:39:58.719Z,72.44
2018-04-30T10:40:58.744Z,73.50
2018-04-30T10:41:58.727Z,71.86
2018-04-30T10:42:58.805Z,71.66
2018-04-30T10:43:58.758Z,72.69
2018-04-30T10:44:58.756Z,71.56
2018-04-30T10:45:58.769Z,72.60
2018-04-30T10:46:58.762Z,71.82
2018-04-30T10:47:58.777Z,74.01
2018-04-30T10:48:58.851Z,74.98
2018-04-30T10:49:58.778Z,74.79
2018-04-30T10:50:58.805Z,73.72
2018-04-30T10:51:58.793Z,73.72
2018-04-30T10:52:58.801Z,73.30
2018-04-30T10:53:58.807Z,73.53
2018-04-30T10:54:58.813Z,72.95
2018-04-30T10:55:58.816Z,72.85
2018-04-30T10:56:58.821Z,71.94
2018-04-30T10:57:58.827Z,72.91
2018-04-30T10:58:58.832Z,73.88
2018-04-30T10:59:58.841Z,73.32
2018-04-30T11:00:58.843Z,73.84
2018-04-30T11:01:58.851Z,73.39
2018-04-30T11:02:58.857Z,72.52
2018-04-30T11:03:58.864Z,72.33
2018-04-30T11:04:58.868Z,71.26
2018-04-30T11:05:58.872Z,71.75
2018-04-30T11:06:58.883Z,73.36
2018-04-30T11:07:58.890Z,74.42
2018-04-30T11:08:58.890Z,75.54
2018-04-30T11:09:58.902Z,75.84
2018-04-30T11:10:58.901Z,74.96
2018-04-30T11:11:58.908Z,75.48
2018-04-30T11:12:58.920Z,75.68
2018-04-30T11:13:58.919Z,75.87
2018-04-30T11:14:58.923Z,75.00
2018-04-30T11:15:58.929Z,73.16
2018-04-30T11:16:58.935Z,73.80
2018-04-30T11:17:58.939Z,73.80
2018-04-30T11:18:58.945Z,74.68
2018-04-30T11:19:58.952Z,74.58
2018-04-30T11:20:58.956Z,73.22
2018-04-30T11:21:58.961Z,73.42
2018-04-30T11:22:58.966Z,74.48
2018-04-30T11:23:58.967Z,77.05
2018-04-30T11:24:59.043Z,77.73
2018-04-30T11:25:58.984Z,77.50
2018-04-30T11:26:58.988Z,78.27
2018-04-30T11:27:58.994Z,78.27
2018-04-30T11:28:58.999Z,79.19
2018-04-30T11:29:59.005Z,80.41
2018-04-30T11:30:59.015Z,80.51
2018-04-30T11:31:59.013Z,80.64
2018-04-30T11:32:59.018Z,80.79
2018-04-30T11:33:59.039Z,80.41
2018-04-30T11:34:59.029Z,80.79
2018-04-30T11:35:59.035Z,81.72
2018-04-30T11:36:59.041Z,82.78
2018-04-30T11:37:59.042Z,82.68
2018-04-30T11:38:59.048Z,82.68
2018-04-30T11:39:59.194Z,82.59
2018-04-30T11:40:59.068Z,82.87
2018-04-30T11:41:59.090Z,83.26
2018-04-30T11:42:59.066Z,82.87
2018-04-30T11:43:59.072Z,82.68
2018-04-30T11:44:59.093Z,81.62
2018-04-30T11:45:59.155Z,82.29
2018-04-30T11:46:59.087Z,81.43
2018-04-30T11:47:59.116Z,81.52
2018-04-30T11:48:59.149Z,80.66
2018-04-30T11:49:59.099Z,80.22
2018-04-30T11:50:59.176Z,80.60
2018-04-30T11:51:59.235Z,80.56
2018-04-30T11:52:59.116Z,80.60
2018-04-30T11:53:59.113Z,80.56
2018-04-30T11:54:59.116Z,80.76
2018-04-30T11:55:59.121Z,80.56
2018-04-30T11:56:59.128Z,81.52
2018-04-30T11:57:59.131Z,80.85
2018-04-30T11:58:59.134Z,82.29
2018-04-30T11:59:59.142Z,82.26
2018-04-30T12:00:59.231Z,82.59
2018-04-30T12:01:59.150Z,82.06
2018-04-30T12:02:59.151Z,82.45
2018-04-30T12:03:59.206Z,82.83
2018-04-30T12:04:59.288Z,82.20
2018-04-30T12:05:59.161Z,81.14
2018-04-30T12:06:59.234Z,80.18
2018-04-30T12:07:59.178Z,80.94
2018-04-30T12:08:59.174Z,81.81
2018-04-30T12:09:59.178Z,80.31
2018-04-30T12:10:59.464Z,80.27
2018-04-30T12:11:59.273Z,80.27
2018-04-30T12:12:59.189Z,80.27
2018-04-30T12:13:59.193Z,77.86
2018-04-30T12:14:59.310Z,78.34
2018-04-30T12:15:59.294Z,78.63
2018-04-30T12:16:59.207Z,79.44
2018-04-30T12:17:59.212Z,77.33
2018-04-30T12:18:59.212Z,76.45
2018-04-30T12:19:59.215Z,76.07
2018-04-30T12:20:59.221Z,77.51
2018-04-30T12:21:59.232Z,76.98
2018-04-30T12:22:59.249Z,76.98
2018-04-30T12:23:59.232Z,76.50
2018-04-30T12:24:59.239Z,77.46
2018-04-30T12:25:59.246Z,77.26
2018-04-30T12:26:59.246Z,77.59
2018-04-30T12:27:59.250Z,77.46
2018-04-30T12:28:59.251Z,77.26
2018-04-30T12:29:59.259Z,78.77
2018-04-30T12:30:59.259Z,80.22
2018-04-30T12:31:59.264Z,82.82
2018-04-30T12:32:59.269Z,79.74
2018-04-30T12:33:59.275Z,81.27
2018-04-30T12:34:59.279Z,82.43
2018-04-30T12:35:59.299Z,81.37
2018-04-30T12:36:59.284Z,81.12
2018-04-30T12:37:59.289Z,82.76
2018-04-30T12:38:59.295Z,81.51
2018-04-30T12:39:59.297Z,80.06
2018-04-30T12:40:59.360Z,77.30
2018-04-30T12:41:59.306Z,76.24
2018-04-30T12:42:59.487Z,76.40
2018-04-30T12:43:59.314Z,73.50
2018-04-30T12:44:59.543Z,72.44
2018-04-30T12:45:59.322Z,73.08
2018-04-30T12:46:59.322Z,71.54
2018-04-30T12:47:59.411Z,72.73
2018-04-30T12:48:59.352Z,70.09
2018-04-30T12:49:59.665Z,69.45
2018-04-30T12:50:59.773Z,69.49
2018-04-30T12:51:59.450Z,65.43
2018-04-30T12:52:59.643Z,64.28